sensor_id;sensor_type;location;lat;lon;timestamp;P1;durP1;ratioP1;P2;durP2;ratioP2
71265;SDS011;59030;52.052;8.550;2022-09-13T00:01:25;5.00;;;4.50;;
71265;SDS011;59030;52.052;8.550;2022-09-13T00:03:52;5.43;;;4.53;;
71265;SDS011;59030;52.052;8.550;2022-09-13T00:06:20;4.80;;;4.30;;
71265;SDS011;59030;52.052;8.550;2022-09-13T00:08:47;7.40;;;4.77;;
71265;SDS011;59030;52.052;8.550;2022-09-13T00:11:15;5.20;;;4.60;;
71265;SDS011;59030;52.052;8.550;2022-09-13T00:13:43;6.37;;;5.07;;
71265;SDS011;59030;52.052;8.550;2022-09-13T00:16:11;5.43;;;4.33;;
71265;SDS011;59030;52.052;8.550;2022-09-13T00:18:39;5.93;;;4.27;;
71265;SDS011;59030;52.052;8.550;2022-09-13T00:21:08;5.23;;;4.73;;
71265;SDS011;59030;52.052;8.550;2022-09-13T00:23:35;6.77;;;4.77;;
71265;SDS011;59030;52.052;8.550;2022-09-13T00:26:07;5.30;;;4.80;;
71265;SDS011;59030;52.052;8.550;2022-09-13T00:28:35;5.00;;;4.50;;
71265;SDS011;59030;52.052;8.550;2022-09-13T00:31:03;4.97;;;4.50;;
71265;SDS011;59030;52.052;8.550;2022-09-13T00:33:31;5.10;;;4.57;;
71265;SDS011;59030;52.052;8.550;2022-09-13T00:35:58;4.80;;;4.30;;
71265;SDS011;59030;52.052;8.550;2022-09-13T00:38:27;4.83;;;4.20;;
71265;SDS011;59030;52.052;8.550;2022-09-13T00:40:54;4.53;;;4.10;;
71265;SDS011;59030;52.052;8.550;2022-09-13T00:43:39;5.40;;;4.37;;
71265;SDS011;59030;52.052;8.550;2022-09-13T00:46:05;5.00;;;4.50;;
71265;SDS011;59030;52.052;8.550;2022-09-13T00:48:33;5.20;;;4.70;;
71265;SDS011;59030;52.052;8.550;2022-09-13T00:51:02;4.87;;;4.23;;
71265;SDS011;59030;52.052;8.550;2022-09-13T00:53:31;4.80;;;4.40;;
71265;SDS011;59030;52.052;8.550;2022-09-13T00:55:59;6.27;;;4.80;;
71265;SDS011;59030;52.052;8.550;2022-09-13T00:58:29;6.03;;;4.70;;
71265;SDS011;59030;52.052;8.550;2022-09-13T01:00:57;9.43;;;4.90;;
71265;SDS011;59030;52.052;8.550;2022-09-13T01:03:25;6.37;;;5.03;;
71265;SDS011;59030;52.052;8.550;2022-09-13T01:05:53;4.90;;;4.40;;
71265;SDS011;59030;52.052;8.550;2022-09-13T01:08:22;6.90;;;4.87;;
71265;SDS011;59030;52.052;8.550;2022-09-13T01:10:50;5.03;;;4.53;;
71265;SDS011;59030;52.052;8.550;2022-09-13T01:13:18;5.30;;;4.60;;
71265;SDS011;59030;52.052;8.550;2022-09-13T01:15:46;4.93;;;4.40;;
71265;SDS011;59030;52.052;8.550;2022-09-13T01:18:14;5.13;;;4.57;;
71265;SDS011;59030;52.052;8.550;2022-09-13T01:23:33;7.67;;;4.70;;
71265;SDS011;59030;52.052;8.550;2022-09-13T01:26:18;5.30;;;4.60;;
71265;SDS011;59030;52.052;8.550;2022-09-13T01:31:43;5.70;;;4.40;;
71265;SDS011;59030;52.052;8.550;2022-09-13T01:34:15;4.97;;;4.47;;
71265;SDS011;59030;52.052;8.550;2022-09-13T01:39:35;6.60;;;5.00;;
71265;SDS011;59030;52.052;8.550;2022-09-13T01:42:06;5.40;;;4.80;;
71265;SDS011;59030;52.052;8.550;2022-09-13T01:44:41;5.00;;;4.50;;
71265;SDS011;59030;52.052;8.550;2022-09-13T01:47:10;4.73;;;4.27;;
71265;SDS011;59030;52.052;8.550;2022-09-13T01:49:40;5.30;;;4.50;;
71265;SDS011;59030;52.052;8.550;2022-09-13T01:52:07;5.10;;;4.60;;
71265;SDS011;59030;52.052;8.550;2022-09-13T01:54:36;5.20;;;4.50;;
71265;SDS011;59030;52.052;8.550;2022-09-13T01:57:06;4.83;;;4.33;;
71265;SDS011;59030;52.052;8.550;2022-09-13T01:59:35;5.10;;;4.50;;
71265;SDS011;59030;52.052;8.550;2022-09-13T02:02:05;4.93;;;4.43;;
71265;SDS011;59030;52.052;8.550;2022-09-13T02:04:35;5.97;;;4.83;;
71265;SDS011;59030;52.052;8.550;2022-09-13T02:07:03;7.30;;;4.50;;
71265;SDS011;59030;52.052;8.550;2022-09-13T02:09:35;4.57;;;4.17;;
71265;SDS011;59030;52.052;8.550;2022-09-13T02:12:05;5.20;;;4.40;;
71265;SDS011;59030;52.052;8.550;2022-09-13T02:14:34;5.30;;;4.57;;
71265;SDS011;59030;52.052;8.550;2022-09-13T02:17:03;4.87;;;4.13;;
71265;SDS011;59030;52.052;8.550;2022-09-13T02:19:34;6.77;;;4.40;;
71265;SDS011;59030;52.052;8.550;2022-09-13T02:22:02;5.13;;;3.90;;
71265;SDS011;59030;52.052;8.550;2022-09-13T02:24:30;5.07;;;4.13;;
71265;SDS011;59030;52.052;8.550;2022-09-13T02:27:00;5.03;;;4.30;;
71265;SDS011;59030;52.052;8.550;2022-09-13T02:29:27;4.40;;;4.00;;
71265;SDS011;59030;52.052;8.550;2022-09-13T02:31:57;5.57;;;4.10;;
71265;SDS011;59030;52.052;8.550;2022-09-13T02:34:26;4.43;;;4.03;;
71265;SDS011;59030;52.052;8.550;2022-09-13T02:36:54;4.53;;;4.13;;
71265;SDS011;59030;52.052;8.550;2022-09-13T02:39:23;4.83;;;4.40;;
71265;SDS011;59030;52.052;8.550;2022-09-13T02:41:52;6.13;;;4.20;;
71265;SDS011;59030;52.052;8.550;2022-09-13T02:44:22;5.33;;;4.17;;
71265;SDS011;59030;52.052;8.550;2022-09-13T02:47:03;4.67;;;4.27;;
71265;SDS011;59030;52.052;8.550;2022-09-13T02:49:36;4.90;;;4.30;;
71265;SDS011;59030;52.052;8.550;2022-09-13T02:52:04;5.17;;;4.03;;
71265;SDS011;59030;52.052;8.550;2022-09-13T02:54:32;4.93;;;4.50;;
71265;SDS011;59030;52.052;8.550;2022-09-13T02:57:02;6.97;;;4.47;;
71265;SDS011;59030;52.052;8.550;2022-09-13T02:59:29;5.17;;;4.47;;
71265;SDS011;59030;52.052;8.550;2022-09-13T03:01:58;5.67;;;4.83;;
71265;SDS011;59030;52.052;8.550;2022-09-13T03:04:26;4.80;;;4.40;;
71265;SDS011;59030;52.052;8.550;2022-09-13T03:06:53;5.50;;;4.93;;
71265;SDS011;59030;52.052;8.550;2022-09-13T03:09:21;5.40;;;4.90;;
71265;SDS011;59030;52.052;8.550;2022-09-13T03:11:54;4.80;;;4.40;;
71265;SDS011;59030;52.052;8.550;2022-09-13T03:14:24;5.63;;;4.90;;
71265;SDS011;59030;52.052;8.550;2022-09-13T03:17:00;5.33;;;4.57;;
71265;SDS011;59030;52.052;8.550;2022-09-13T03:19:35;5.07;;;4.30;;
71265;SDS011;59030;52.052;8.550;2022-09-13T03:22:06;5.77;;;4.63;;
71265;SDS011;59030;52.052;8.550;2022-09-13T03:24:35;6.50;;;4.27;;
71265;SDS011;59030;52.052;8.550;2022-09-13T03:27:05;5.07;;;4.47;;
71265;SDS011;59030;52.052;8.550;2022-09-13T03:29:36;4.77;;;4.27;;
71265;SDS011;59030;52.052;8.550;2022-09-13T03:32:05;4.20;;;3.80;;
71265;SDS011;59030;52.052;8.550;2022-09-13T03:34:35;4.23;;;3.83;;
71265;SDS011;59030;52.052;8.550;2022-09-13T03:37:04;4.40;;;4.00;;
71265;SDS011;59030;52.052;8.550;2022-09-13T03:39:34;4.53;;;3.93;;
71265;SDS011;59030;52.052;8.550;2022-09-13T03:42:03;4.77;;;4.23;;
71265;SDS011;59030;52.052;8.550;2022-09-13T03:44:31;4.27;;;3.87;;
71265;SDS011;59030;52.052;8.550;2022-09-13T03:47:00;5.00;;;3.90;;
71265;SDS011;59030;52.052;8.550;2022-09-13T03:49:28;4.50;;;4.10;;
71265;SDS011;59030;52.052;8.550;2022-09-13T03:51:55;6.97;;;4.10;;
71265;SDS011;59030;52.052;8.550;2022-09-13T03:54:27;4.20;;;3.80;;
71265;SDS011;59030;52.052;8.550;2022-09-13T03:57:05;4.60;;;4.10;;
71265;SDS011;59030;52.052;8.550;2022-09-13T03:59:33;7.17;;;4.10;;
71265;SDS011;59030;52.052;8.550;2022-09-13T04:02:01;6.57;;;4.20;;
71265;SDS011;59030;52.052;8.550;2022-09-13T04:04:29;5.23;;;3.90;;
71265;SDS011;59030;52.052;8.550;2022-09-13T04:06:56;4.67;;;4.07;;
71265;SDS011;59030;52.052;8.550;2022-09-13T04:09:25;4.37;;;3.60;;
71265;SDS011;59030;52.052;8.550;2022-09-13T04:11:52;7.13;;;4.20;;
71265;SDS011;59030;52.052;8.550;2022-09-13T04:14:19;4.53;;;4.13;;
71265;SDS011;59030;52.052;8.550;2022-09-13T04:16:47;5.33;;;4.37;;
71265;SDS011;59030;52.052;8.550;2022-09-13T04:19:15;7.23;;;4.23;;
71265;SDS011;59030;52.052;8.550;2022-09-13T04:21:42;4.90;;;4.40;;
71265;SDS011;59030;52.052;8.550;2022-09-13T04:24:10;4.97;;;4.47;;
71265;SDS011;59030;52.052;8.550;2022-09-13T04:26:37;5.33;;;4.37;;
71265;SDS011;59030;52.052;8.550;2022-09-13T04:29:04;4.57;;;4.17;;
71265;SDS011;59030;52.052;8.550;2022-09-13T04:31:32;5.70;;;4.10;;
71265;SDS011;59030;52.052;8.550;2022-09-13T04:33:59;4.47;;;4.07;;
71265;SDS011;59030;52.052;8.550;2022-09-13T04:36:26;4.73;;;4.20;;
71265;SDS011;59030;52.052;8.550;2022-09-13T04:38:54;4.70;;;4.30;;
71265;SDS011;59030;52.052;8.550;2022-09-13T04:41:21;5.87;;;4.50;;
71265;SDS011;59030;52.052;8.550;2022-09-13T04:43:49;4.93;;;4.40;;
71265;SDS011;59030;52.052;8.550;2022-09-13T04:46:16;4.83;;;4.33;;
71265;SDS011;59030;52.052;8.550;2022-09-13T04:48:47;4.97;;;4.47;;
71265;SDS011;59030;52.052;8.550;2022-09-13T04:51:15;5.20;;;4.70;;
71265;SDS011;59030;52.052;8.550;2022-09-13T04:53:43;6.43;;;5.03;;
71265;SDS011;59030;52.052;8.550;2022-09-13T04:56:10;6.47;;;4.33;;
71265;SDS011;59030;52.052;8.550;2022-09-13T04:58:40;5.97;;;4.70;;
71265;SDS011;59030;52.052;8.550;2022-09-13T05:01:08;6.13;;;4.43;;
71265;SDS011;59030;52.052;8.550;2022-09-13T05:03:36;5.53;;;4.53;;
71265;SDS011;59030;52.052;8.550;2022-09-13T05:06:04;5.07;;;4.43;;
71265;SDS011;59030;52.052;8.550;2022-09-13T05:08:31;4.97;;;4.47;;
71265;SDS011;59030;52.052;8.550;2022-09-13T05:10:59;4.73;;;4.30;;
71265;SDS011;59030;52.052;8.550;2022-09-13T05:13:26;5.67;;;4.30;;
71265;SDS011;59030;52.052;8.550;2022-09-13T05:15:54;5.23;;;4.13;;
71265;SDS011;59030;52.052;8.550;2022-09-13T05:18:22;4.93;;;4.20;;
71265;SDS011;59030;52.052;8.550;2022-09-13T05:20:53;4.77;;;3.80;;
71265;SDS011;59030;52.052;8.550;2022-09-13T05:23:21;7.63;;;4.30;;
71265;SDS011;59030;52.052;8.550;2022-09-13T05:25:52;7.40;;;4.53;;
71265;SDS011;59030;52.052;8.550;2022-09-13T05:28:19;7.97;;;4.20;;
71265;SDS011;59030;52.052;8.550;2022-09-13T05:30:53;6.03;;;4.30;;
71265;SDS011;59030;52.052;8.550;2022-09-13T05:33:21;4.97;;;3.80;;
71265;SDS011;59030;52.052;8.550;2022-09-13T05:35:48;4.77;;;3.90;;
71265;SDS011;59030;52.052;8.550;2022-09-13T05:38:16;7.20;;;4.70;;
71265;SDS011;59030;52.052;8.550;2022-09-13T05:40:43;4.57;;;4.03;;
71265;SDS011;59030;52.052;8.550;2022-09-13T05:43:10;4.63;;;4.13;;
71265;SDS011;59030;52.052;8.550;2022-09-13T05:45:38;5.40;;;4.17;;
71265;SDS011;59030;52.052;8.550;2022-09-13T05:48:05;6.13;;;3.97;;
71265;SDS011;59030;52.052;8.550;2022-09-13T05:50:36;4.60;;;4.10;;
71265;SDS011;59030;52.052;8.550;2022-09-13T05:53:03;5.43;;;4.00;;
71265;SDS011;59030;52.052;8.550;2022-09-13T05:55:31;5.57;;;4.10;;
71265;SDS011;59030;52.052;8.550;2022-09-13T05:57:59;5.77;;;3.87;;
71265;SDS011;59030;52.052;8.550;2022-09-13T06:00:27;4.73;;;4.17;;
71265;SDS011;59030;52.052;8.550;2022-09-13T06:02:55;6.17;;;3.83;;
71265;SDS011;59030;52.052;8.550;2022-09-13T06:05:22;4.43;;;3.83;;
71265;SDS011;59030;52.052;8.550;2022-09-13T06:07:50;4.87;;;3.73;;
71265;SDS011;59030;52.052;8.550;2022-09-13T06:10:18;7.80;;;4.20;;
71265;SDS011;59030;52.052;8.550;2022-09-13T06:12:46;5.30;;;3.90;;
71265;SDS011;59030;52.052;8.550;2022-09-13T06:15:13;13.87;;;4.40;;
71265;SDS011;59030;52.052;8.550;2022-09-13T06:17:41;5.13;;;4.37;;
71265;SDS011;59030;52.052;8.550;2022-09-13T06:20:08;6.07;;;4.33;;
71265;SDS011;59030;52.052;8.550;2022-09-13T06:22:36;4.90;;;3.90;;
71265;SDS011;59030;52.052;8.550;2022-09-13T06:25:04;4.47;;;4.07;;
71265;SDS011;59030;52.052;8.550;2022-09-13T06:27:32;5.47;;;4.03;;
71265;SDS011;59030;52.052;8.550;2022-09-13T06:29:59;4.33;;;3.93;;
71265;SDS011;59030;52.052;8.550;2022-09-13T06:32:27;4.80;;;3.90;;
71265;SDS011;59030;52.052;8.550;2022-09-13T06:34:54;5.17;;;4.33;;
71265;SDS011;59030;52.052;8.550;2022-09-13T06:37:22;5.77;;;4.80;;
71265;SDS011;59030;52.052;8.550;2022-09-13T06:39:49;5.20;;;4.70;;
71265;SDS011;59030;52.052;8.550;2022-09-13T06:42:16;5.27;;;4.50;;
71265;SDS011;59030;52.052;8.550;2022-09-13T06:44:44;6.57;;;4.73;;
71265;SDS011;59030;52.052;8.550;2022-09-13T06:47:13;6.07;;;4.63;;
71265;SDS011;59030;52.052;8.550;2022-09-13T06:49:40;6.80;;;4.83;;
71265;SDS011;59030;52.052;8.550;2022-09-13T06:52:08;8.47;;;4.50;;
71265;SDS011;59030;52.052;8.550;2022-09-13T06:54:35;5.93;;;4.90;;
71265;SDS011;59030;52.052;8.550;2022-09-13T06:57:02;5.43;;;4.63;;
71265;SDS011;59030;52.052;8.550;2022-09-13T06:59:30;6.57;;;4.70;;
71265;SDS011;59030;52.052;8.550;2022-09-13T07:01:57;6.93;;;5.10;;
71265;SDS011;59030;52.052;8.550;2022-09-13T07:04:24;9.03;;;4.97;;
71265;SDS011;59030;52.052;8.550;2022-09-13T07:06:53;6.27;;;5.07;;
71265;SDS011;59030;52.052;8.550;2022-09-13T07:09:21;8.00;;;5.57;;
71265;SDS011;59030;52.052;8.550;2022-09-13T07:11:49;7.73;;;5.73;;
71265;SDS011;59030;52.052;8.550;2022-09-13T07:14:17;7.97;;;5.90;;
71265;SDS011;59030;52.052;8.550;2022-09-13T07:16:44;8.43;;;5.80;;
71265;SDS011;59030;52.052;8.550;2022-09-13T07:19:12;8.10;;;6.27;;
71265;SDS011;59030;52.052;8.550;2022-09-13T07:21:41;8.60;;;5.80;;
71265;SDS011;59030;52.052;8.550;2022-09-13T07:24:08;9.07;;;5.90;;
71265;SDS011;59030;52.052;8.550;2022-09-13T07:26:36;6.53;;;5.80;;
71265;SDS011;59030;52.052;8.550;2022-09-13T07:29:04;7.33;;;5.67;;
71265;SDS011;59030;52.052;8.550;2022-09-13T07:31:33;6.53;;;5.53;;
71265;SDS011;59030;52.052;8.550;2022-09-13T07:34:01;10.33;;;5.40;;
71265;SDS011;59030;52.052;8.550;2022-09-13T07:36:30;8.60;;;5.43;;
71265;SDS011;59030;52.052;8.550;2022-09-13T07:38:57;8.43;;;5.77;;
71265;SDS011;59030;52.052;8.550;2022-09-13T07:41:25;8.77;;;6.43;;
71265;SDS011;59030;52.052;8.550;2022-09-13T07:43:53;7.87;;;5.80;;
71265;SDS011;59030;52.052;8.550;2022-09-13T07:46:21;9.23;;;6.13;;
71265;SDS011;59030;52.052;8.550;2022-09-13T07:48:50;8.77;;;6.07;;
71265;SDS011;59030;52.052;8.550;2022-09-13T07:51:18;7.23;;;6.27;;
71265;SDS011;59030;52.052;8.550;2022-09-13T07:53:46;8.43;;;6.67;;
71265;SDS011;59030;52.052;8.550;2022-09-13T07:56:15;7.77;;;6.50;;
71265;SDS011;59030;52.052;8.550;2022-09-13T07:58:44;10.00;;;7.40;;
71265;SDS011;59030;52.052;8.550;2022-09-13T08:01:11;10.33;;;7.00;;
71265;SDS011;59030;52.052;8.550;2022-09-13T08:03:39;12.40;;;7.20;;
71265;SDS011;59030;52.052;8.550;2022-09-13T08:06:07;7.70;;;6.83;;
71265;SDS011;59030;52.052;8.550;2022-09-13T08:08:35;8.77;;;7.60;;
71265;SDS011;59030;52.052;8.550;2022-09-13T08:11:03;9.33;;;6.57;;
71265;SDS011;59030;52.052;8.550;2022-09-13T08:13:31;10.70;;;7.10;;
71265;SDS011;59030;52.052;8.550;2022-09-13T08:16:00;10.57;;;7.67;;
71265;SDS011;59030;52.052;8.550;2022-09-13T08:18:27;10.00;;;7.73;;
71265;SDS011;59030;52.052;8.550;2022-09-13T08:20:55;8.60;;;6.60;;
71265;SDS011;59030;52.052;8.550;2022-09-13T08:23:24;10.60;;;8.10;;
71265;SDS011;59030;52.052;8.550;2022-09-13T08:25:51;11.37;;;7.17;;
71265;SDS011;59030;52.052;8.550;2022-09-13T08:28:20;11.60;;;8.07;;
71265;SDS011;59030;52.052;8.550;2022-09-13T08:30:48;12.23;;;8.43;;
71265;SDS011;59030;52.052;8.550;2022-09-13T08:33:15;11.50;;;8.20;;
71265;SDS011;59030;52.052;8.550;2022-09-13T08:35:49;12.27;;;8.43;;
71265;SDS011;59030;52.052;8.550;2022-09-13T08:38:16;11.10;;;8.00;;
71265;SDS011;59030;52.052;8.550;2022-09-13T08:40:45;10.63;;;8.63;;
71265;SDS011;59030;52.052;8.550;2022-09-13T08:43:14;11.97;;;8.60;;
71265;SDS011;59030;52.052;8.550;2022-09-13T08:45:42;12.03;;;8.73;;
71265;SDS011;59030;52.052;8.550;2022-09-13T08:48:12;11.33;;;8.20;;
71265;SDS011;59030;52.052;8.550;2022-09-13T08:50:39;12.63;;;9.90;;
71265;SDS011;59030;52.052;8.550;2022-09-13T08:53:14;12.30;;;9.60;;
71265;SDS011;59030;52.052;8.550;2022-09-13T08:55:44;12.80;;;9.17;;
71265;SDS011;59030;52.052;8.550;2022-09-13T08:58:17;14.60;;;9.93;;
71265;SDS011;59030;52.052;8.550;2022-09-13T09:00:46;14.90;;;9.73;;
71265;SDS011;59030;52.052;8.550;2022-09-13T09:03:17;12.97;;;9.93;;
71265;SDS011;59030;52.052;8.550;2022-09-13T09:05:45;13.40;;;10.10;;
71265;SDS011;59030;52.052;8.550;2022-09-13T09:08:17;15.27;;;9.83;;
71265;SDS011;59030;52.052;8.550;2022-09-13T09:10:44;15.37;;;10.50;;
71265;SDS011;59030;52.052;8.550;2022-09-13T09:13:13;13.83;;;10.13;;
71265;SDS011;59030;52.052;8.550;2022-09-13T09:15:42;13.07;;;9.87;;
71265;SDS011;59030;52.052;8.550;2022-09-13T09:18:12;13.10;;;10.13;;
71265;SDS011;59030;52.052;8.550;2022-09-13T09:20:42;14.20;;;10.10;;
71265;SDS011;59030;52.052;8.550;2022-09-13T09:23:12;14.60;;;9.90;;
71265;SDS011;59030;52.052;8.550;2022-09-13T09:25:41;13.50;;;9.40;;
71265;SDS011;59030;52.052;8.550;2022-09-13T09:28:09;12.70;;;9.23;;
71265;SDS011;59030;52.052;8.550;2022-09-13T09:30:40;13.73;;;10.13;;
71265;SDS011;59030;52.052;8.550;2022-09-13T09:33:12;14.40;;;9.60;;
71265;SDS011;59030;52.052;8.550;2022-09-13T09:35:43;11.30;;;9.23;;
71265;SDS011;59030;52.052;8.550;2022-09-13T09:38:18;11.83;;;8.83;;
71265;SDS011;59030;52.052;8.550;2022-09-13T09:40:47;12.77;;;8.53;;
71265;SDS011;59030;52.052;8.550;2022-09-13T09:43:16;16.73;;;8.63;;
71265;SDS011;59030;52.052;8.550;2022-09-13T09:45:43;11.50;;;8.47;;
71265;SDS011;59030;52.052;8.550;2022-09-13T09:48:13;13.53;;;8.90;;
71265;SDS011;59030;52.052;8.550;2022-09-13T09:50:43;12.63;;;9.13;;
71265;SDS011;59030;52.052;8.550;2022-09-13T09:53:11;13.87;;;8.73;;
71265;SDS011;59030;52.052;8.550;2022-09-13T09:55:41;14.20;;;8.70;;
71265;SDS011;59030;52.052;8.550;2022-09-13T09:58:11;11.57;;;8.90;;
71265;SDS011;59030;52.052;8.550;2022-09-13T10:00:49;11.13;;;8.77;;
71265;SDS011;59030;52.052;8.550;2022-09-13T10:03:18;10.37;;;8.63;;
71265;SDS011;59030;52.052;8.550;2022-09-13T10:05:46;12.07;;;8.47;;
71265;SDS011;59030;52.052;8.550;2022-09-13T10:08:23;13.30;;;8.93;;
71265;SDS011;59030;52.052;8.550;2022-09-13T10:10:51;10.63;;;8.40;;
71265;SDS011;59030;52.052;8.550;2022-09-13T10:13:20;11.67;;;9.00;;
71265;SDS011;59030;52.052;8.550;2022-09-13T10:15:52;10.40;;;8.20;;
71265;SDS011;59030;52.052;8.550;2022-09-13T10:18:20;13.70;;;8.67;;
71265;SDS011;59030;52.052;8.550;2022-09-13T10:20:59;13.97;;;9.53;;
71265;SDS011;59030;52.052;8.550;2022-09-13T10:23:26;13.63;;;8.87;;
71265;SDS011;59030;52.052;8.550;2022-09-13T10:25:55;11.87;;;8.77;;
71265;SDS011;59030;52.052;8.550;2022-09-13T10:28:24;12.50;;;9.00;;
71265;SDS011;59030;52.052;8.550;2022-09-13T10:30:53;10.90;;;8.73;;
71265;SDS011;59030;52.052;8.550;2022-09-13T10:33:24;15.87;;;10.87;;
71265;SDS011;59030;52.052;8.550;2022-09-13T10:35:53;11.37;;;8.80;;
71265;SDS011;59030;52.052;8.550;2022-09-13T10:38:23;14.80;;;9.13;;
71265;SDS011;59030;52.052;8.550;2022-09-13T10:40:51;12.73;;;8.30;;
71265;SDS011;59030;52.052;8.550;2022-09-13T10:43:19;10.67;;;8.13;;
71265;SDS011;59030;52.052;8.550;2022-09-13T10:45:48;10.80;;;8.23;;
71265;SDS011;59030;52.052;8.550;2022-09-13T10:48:16;10.53;;;7.77;;
71265;SDS011;59030;52.052;8.550;2022-09-13T10:51:00;10.87;;;8.00;;
71265;SDS011;59030;52.052;8.550;2022-09-13T10:53:35;11.33;;;8.20;;
71265;SDS011;59030;52.052;8.550;2022-09-13T10:56:03;11.07;;;8.50;;
71265;SDS011;59030;52.052;8.550;2022-09-13T10:58:31;10.17;;;7.90;;
71265;SDS011;59030;52.052;8.550;2022-09-13T11:06:41;10.70;;;8.60;;
71265;SDS011;59030;52.052;8.550;2022-09-13T11:09:11;12.60;;;8.90;;
71265;SDS011;59030;52.052;8.550;2022-09-13T11:11:40;12.00;;;8.43;;
71265;SDS011;59030;52.052;8.550;2022-09-13T11:14:15;12.33;;;9.47;;
71265;SDS011;59030;52.052;8.550;2022-09-13T11:16:46;11.43;;;8.80;;
71265;SDS011;59030;52.052;8.550;2022-09-13T11:19:27;11.77;;;8.73;;
71265;SDS011;59030;52.052;8.550;2022-09-13T11:22:00;10.60;;;9.27;;
71265;SDS011;59030;52.052;8.550;2022-09-13T11:27:16;11.80;;;8.63;;
71265;SDS011;59030;52.052;8.550;2022-09-13T11:29:53;10.13;;;8.30;;
71265;SDS011;59030;52.052;8.550;2022-09-13T11:32:24;9.40;;;7.20;;
71265;SDS011;59030;52.052;8.550;2022-09-13T11:34:56;10.57;;;7.10;;
71265;SDS011;59030;52.052;8.550;2022-09-13T11:37:26;11.30;;;7.70;;
71265;SDS011;59030;52.052;8.550;2022-09-13T11:39:56;9.33;;;7.77;;
71265;SDS011;59030;52.052;8.550;2022-09-13T11:42:27;10.60;;;8.13;;
71265;SDS011;59030;52.052;8.550;2022-09-13T11:47:43;11.50;;;7.90;;
71265;SDS011;59030;52.052;8.550;2022-09-13T11:50:16;9.20;;;8.17;;
71265;SDS011;59030;52.052;8.550;2022-09-13T11:52:46;9.10;;;7.57;;
71265;SDS011;59030;52.052;8.550;2022-09-13T11:55:15;13.17;;;8.17;;
71265;SDS011;59030;52.052;8.550;2022-09-13T11:57:45;12.07;;;8.70;;
71265;SDS011;59030;52.052;8.550;2022-09-13T12:00:21;13.17;;;8.40;;
71265;SDS011;59030;52.052;8.550;2022-09-13T12:02:54;10.97;;;9.37;;
71265;SDS011;59030;52.052;8.550;2022-09-13T12:05:21;10.80;;;9.17;;
71265;SDS011;59030;52.052;8.550;2022-09-13T12:07:50;12.57;;;9.53;;
71265;SDS011;59030;52.052;8.550;2022-09-13T12:10:19;11.73;;;9.83;;
71265;SDS011;59030;52.052;8.550;2022-09-13T12:12:47;10.17;;;9.03;;
71265;SDS011;59030;52.052;8.550;2022-09-13T12:15:17;10.73;;;8.77;;
71265;SDS011;59030;52.052;8.550;2022-09-13T12:17:47;11.53;;;8.33;;
71265;SDS011;59030;52.052;8.550;2022-09-13T12:20:17;12.37;;;9.10;;
71265;SDS011;59030;52.052;8.550;2022-09-13T12:22:45;12.07;;;8.60;;
71265;SDS011;59030;52.052;8.550;2022-09-13T12:25:18;10.60;;;8.03;;
71265;SDS011;59030;52.052;8.550;2022-09-13T12:27:52;10.73;;;7.67;;
71265;SDS011;59030;52.052;8.550;2022-09-13T12:30:19;11.40;;;8.93;;
71265;SDS011;59030;52.052;8.550;2022-09-13T12:32:47;9.90;;;8.73;;
71265;SDS011;59030;52.052;8.550;2022-09-13T12:35:18;13.10;;;9.50;;
71265;SDS011;59030;52.052;8.550;2022-09-13T12:37:49;9.67;;;8.07;;
71265;SDS011;59030;52.052;8.550;2022-09-13T12:43:11;13.53;;;9.70;;
71265;SDS011;59030;52.052;8.550;2022-09-13T12:45:47;10.87;;;8.23;;
71265;SDS011;59030;52.052;8.550;2022-09-13T12:51:13;10.43;;;8.50;;
71265;SDS011;59030;52.052;8.550;2022-09-13T12:56:40;10.57;;;9.10;;
71265;SDS011;59030;52.052;8.550;2022-09-13T13:02:00;12.03;;;9.10;;
71265;SDS011;59030;52.052;8.550;2022-09-13T13:04:31;11.23;;;8.40;;
71265;SDS011;59030;52.052;8.550;2022-09-13T13:06:59;9.60;;;7.30;;
71265;SDS011;59030;52.052;8.550;2022-09-13T13:09:29;8.50;;;6.47;;
71265;SDS011;59030;52.052;8.550;2022-09-13T13:11:58;7.73;;;5.40;;
71265;SDS011;59030;52.052;8.550;2022-09-13T13:14:30;6.60;;;4.33;;
71265;SDS011;59030;52.052;8.550;2022-09-13T13:19:44;5.00;;;4.30;;
71265;SDS011;59030;52.052;8.550;2022-09-13T13:25:18;6.13;;;4.27;;
71265;SDS011;59030;52.052;8.550;2022-09-13T13:27:47;5.63;;;4.20;;
71265;SDS011;59030;52.052;8.550;2022-09-13T13:33:04;4.93;;;4.07;;
71265;SDS011;59030;52.052;8.550;2022-09-13T13:35:32;7.47;;;4.30;;
71265;SDS011;59030;52.052;8.550;2022-09-13T13:38:13;4.80;;;4.37;;
71265;SDS011;59030;52.052;8.550;2022-09-13T13:40:41;6.97;;;4.40;;
71265;SDS011;59030;52.052;8.550;2022-09-13T13:43:15;8.17;;;5.20;;
71265;SDS011;59030;52.052;8.550;2022-09-13T13:48:45;6.67;;;4.90;;
71265;SDS011;59030;52.052;8.550;2022-09-13T13:51:17;4.87;;;4.40;;
71265;SDS011;59030;52.052;8.550;2022-09-13T13:53:46;5.70;;;5.20;;
71265;SDS011;59030;52.052;8.550;2022-09-13T13:56:18;5.73;;;5.03;;
71265;SDS011;59030;52.052;8.550;2022-09-13T13:58:47;6.53;;;5.10;;
71265;SDS011;59030;52.052;8.550;2022-09-13T14:06:39;7.13;;;6.43;;
71265;SDS011;59030;52.052;8.550;2022-09-13T14:09:10;6.80;;;6.17;;
71265;SDS011;59030;52.052;8.550;2022-09-13T14:11:40;6.80;;;6.20;;
71265;SDS011;59030;52.052;8.550;2022-09-13T14:14:14;7.00;;;6.27;;
71265;SDS011;59030;52.052;8.550;2022-09-13T14:16:44;7.43;;;6.00;;
71265;SDS011;59030;52.052;8.550;2022-09-13T14:19:19;6.33;;;5.73;;
71265;SDS011;59030;52.052;8.550;2022-09-13T14:22:04;7.73;;;5.27;;
71265;SDS011;59030;52.052;8.550;2022-09-13T14:24:35;6.63;;;5.63;;
71265;SDS011;59030;52.052;8.550;2022-09-13T14:27:03;6.63;;;5.73;;
71265;SDS011;59030;52.052;8.550;2022-09-13T14:29:31;9.37;;;6.13;;
71265;SDS011;59030;52.052;8.550;2022-09-13T14:32:01;6.73;;;5.70;;
71265;SDS011;59030;52.052;8.550;2022-09-13T14:34:30;7.83;;;6.23;;
71265;SDS011;59030;52.052;8.550;2022-09-13T14:36:59;6.53;;;5.83;;
71265;SDS011;59030;52.052;8.550;2022-09-13T14:39:26;5.17;;;4.67;;
71265;SDS011;59030;52.052;8.550;2022-09-13T14:41:58;6.33;;;4.97;;
71265;SDS011;59030;52.052;8.550;2022-09-13T14:44:26;6.00;;;4.43;;
71265;SDS011;59030;52.052;8.550;2022-09-13T14:46:54;4.97;;;4.47;;
71265;SDS011;59030;52.052;8.550;2022-09-13T14:49:23;4.40;;;4.00;;
71265;SDS011;59030;52.052;8.550;2022-09-13T14:51:53;5.37;;;3.90;;
71265;SDS011;59030;52.052;8.550;2022-09-13T14:54:21;4.43;;;3.87;;
71265;SDS011;59030;52.052;8.550;2022-09-13T14:56:49;3.70;;;3.40;;
71265;SDS011;59030;52.052;8.550;2022-09-13T14:59:21;4.90;;;3.60;;
71265;SDS011;59030;52.052;8.550;2022-09-13T15:01:47;5.50;;;3.73;;
71265;SDS011;59030;52.052;8.550;2022-09-13T15:04:15;4.20;;;3.80;;
71265;SDS011;59030;52.052;8.550;2022-09-13T15:06:43;3.70;;;3.40;;
71265;SDS011;59030;52.052;8.550;2022-09-13T15:09:14;4.00;;;3.50;;
71265;SDS011;59030;52.052;8.550;2022-09-13T15:11:55;3.30;;;2.10;;
71265;SDS011;59030;52.052;8.550;2022-09-13T15:14:24;2.30;;;2.10;;
71265;SDS011;59030;52.052;8.550;2022-09-13T15:16:53;2.47;;;2.00;;
71265;SDS011;59030;52.052;8.550;2022-09-13T15:19:28;3.27;;;2.80;;
71265;SDS011;59030;52.052;8.550;2022-09-13T15:22:04;3.03;;;2.70;;
71265;SDS011;59030;52.052;8.550;2022-09-13T15:24:32;3.17;;;2.87;;
71265;SDS011;59030;52.052;8.550;2022-09-13T15:27:04;1.40;;;1.37;;
71265;SDS011;59030;52.052;8.550;2022-09-13T15:29:32;2.57;;;2.37;;
71265;SDS011;59030;52.052;8.550;2022-09-13T15:32:02;2.53;;;2.30;;
71265;SDS011;59030;52.052;8.550;2022-09-13T15:34:30;2.23;;;2.03;;
71265;SDS011;59030;52.052;8.550;2022-09-13T15:37:08;2.57;;;2.33;;
71265;SDS011;59030;52.052;8.550;2022-09-13T15:39:42;3.50;;;1.60;;
71265;SDS011;59030;52.052;8.550;2022-09-13T15:42:10;2.20;;;2.10;;
71265;SDS011;59030;52.052;8.550;2022-09-13T15:44:37;1.80;;;1.47;;